Time;durP1;ratioP1;P1;durP2;ratioP2;P2;SDS_P1;SDS_P2;PMS_P1;PMS_P2;Temp;Humidity;BMP_temperature;BMP_pressure;BME280_temperature;BME280_humidity;BME280_pressure;Samples;Min_cycle;Max_cycle;Signal;HPM_P1;HPM_P2
2023/06/27 00:00:59;;;;;;;11.13;5.20;;;18.40;1.00;;;;;;5056478;28;20253;-87
2023/06/27 00:03:27;;;;;;;7.80;4.23;;;18.50;1.00;;;;;;5037971;28;20254;-87
2023/06/27 00:05:53;;;;;;;7.60;3.83;;;18.50;1.00;;;;;;5054606;28;20200;-85
2023/06/27 00:08:18;;;;;;;9.80;3.97;;;18.30;1.00;;;;;;5055538;28;20175;-85
2023/06/27 00:10:44;;;;;;;9.33;3.93;;;18.30;1.00;;;;;;5037535;28;20187;-85
2023/06/27 00:13:16;;;;;;;10.37;3.43;;;18.40;1.00;;;;;;5037395;28;20172;-84
2023/06/27 00:15:42;;;;;;;11.03;3.57;;;18.30;1.00;;;;;;5037381;28;20188;-85
2023/06/27 00:18:10;;;;;;;9.17;3.67;;;18.20;1.00;;;;;;5037216;28;20174;-83
2023/06/27 00:20:36;;;;;;;9.63;3.60;;;18.20;1.00;;;;;;5036931;28;20182;-85
2023/06/27 00:23:23;;;;;;;8.77;3.60;;;18.20;1.00;;;;;;5055151;28;20188;-83
2023/06/27 00:25:48;;;;;;;8.60;3.40;;;18.00;1.00;;;;;;5036228;28;20181;-86
2023/06/27 00:28:14;;;;;;;10.40;3.37;;;18.10;1.00;;;;;;5037038;28;20175;-85
2023/06/27 00:30:40;;;;;;;8.27;3.20;;;18.00;1.00;;;;;;5036755;28;20227;-85
2023/06/27 00:33:07;;;;;;;10.87;3.07;;;18.00;1.00;;;;;;5054565;28;20176;-85
2023/06/27 00:35:33;;;;;;;8.73;3.20;;;18.20;1.00;;;;;;5037303;28;20196;-85
2023/06/27 00:38:02;;;;;;;15.30;2.90;;;18.20;1.00;;;;;;5037369;28;20212;-86
2023/06/27 00:40:28;;;;;;;6.03;2.63;;;18.10;1.00;;;;;;5036792;28;20309;-85
2023/06/27 00:42:54;;;;;;;10.60;2.97;;;18.00;1.00;;;;;;5054217;28;20226;-85
2023/06/27 00:45:22;;;;;;;9.33;2.53;;;17.90;1.00;;;;;;5054397;28;20643;-85
2023/06/27 00:47:47;;;;;;;10.70;3.00;;;17.80;2.40;;;;;;5034943;28;20284;-84
2023/06/27 00:50:13;;;;;;;8.17;3.33;;;17.70;6.10;;;;;;5035715;28;20258;-86
2023/06/27 00:52:40;;;;;;;9.23;2.70;;;17.60;8.30;;;;;;5069255;28;20244;-82
2023/06/27 00:55:07;;;;;;;9.57;3.30;;;17.70;7.40;;;;;;5076706;28;20208;-82
2023/06/27 00:57:33;;;;;;;12.60;3.10;;;17.60;10.90;;;;;;5056077;28;20191;-84
2023/06/27 00:59:59;;;;;;;8.23;3.10;;;17.50;13.60;;;;;;5051494;28;20205;-85
2023/06/27 01:02:31;;;;;;;10.30;3.00;;;17.60;14.70;;;;;;5039197;28;20172;-84
2023/06/27 01:04:57;;;;;;;10.40;2.97;;;17.70;10.20;;;;;;5055159;28;20478;-84
2023/06/27 01:07:32;;;;;;;7.00;2.67;;;17.70;9.60;;;;;;5037085;28;20660;-84
2023/06/27 01:10:05;;;;;;;8.60;2.67;;;17.70;11.40;;;;;;5036110;28;20169;-84
2023/06/27 01:12:44;;;;;;;9.63;2.63;;;17.60;10.40;;;;;;5036379;28;20172;-83
2023/06/27 01:15:09;;;;;;;7.20;2.33;;;17.50;12.60;;;;;;5061960;28;20180;-82
2023/06/27 01:17:36;;;;;;;9.53;2.83;;;17.50;13.90;;;;;;5059850;28;20303;-84
2023/06/27 01:20:02;;;;;;;8.50;2.83;;;17.50;14.80;;;;;;5075888;28;20209;-82
2023/06/27 01:22:35;;;;;;;8.50;2.70;;;17.40;16.00;;;;;;5053292;28;20180;-81
2023/06/27 01:25:02;;;;;;;6.27;2.47;;;17.50;17.70;;;;;;5062730;28;20180;-85
2023/06/27 01:27:28;;;;;;;7.70;2.37;;;17.50;18.50;;;;;;5054917;28;20168;-82
2023/06/27 01:29:59;;;;;;;10.27;3.27;;;17.40;20.80;;;;;;5037070;28;20175;-84
2023/06/27 01:32:33;;;;;;;8.40;2.53;;;17.30;23.00;;;;;;5037807;28;20183;-82
2023/06/27 01:35:11;;;;;;;8.97;2.77;;;17.30;23.10;;;;;;5038128;28;20179;-85
2023/06/27 01:37:44;;;;;;;9.60;3.10;;;17.40;22.50;;;;;;5035820;28;20202;-83
2023/06/27 01:40:14;;;;;;;10.33;3.03;;;17.40;20.60;;;;;;5054377;28;20259;-84
2023/06/27 01:42:42;;;;;;;9.13;2.53;;;17.30;26.00;;;;;;5036782;28;20158;-84
2023/06/27 01:45:09;;;;;;;9.13;2.70;;;17.10;29.10;;;;;;5036131;28;20702;-82
2023/06/27 01:47:37;;;;;;;8.77;2.40;;;17.10;30.30;;;;;;5069518;28;20211;-82
2023/06/27 01:50:03;;;;;;;9.33;2.60;;;17.10;30.70;;;;;;5054689;28;20696;-84
2023/06/27 01:52:29;;;;;;;10.23;3.27;;;17.20;29.10;;;;;;5036661;28;20168;-83
2023/06/27 01:54:55;;;;;;;9.30;2.70;;;17.20;29.30;;;;;;5036485;28;20543;-84
2023/06/27 01:57:21;;;;;;;9.40;3.00;;;17.20;28.80;;;;;;5036764;28;20185;-84
2023/06/27 01:59:47;;;;;;;8.90;3.20;;;17.20;29.40;;;;;;5039661;28;20201;-84
2023/06/27 02:02:13;;;;;;;8.00;2.73;;;17.20;29.60;;;;;;5044071;28;20173;-81
2023/06/27 02:04:39;;;;;;;9.63;2.80;;;17.20;30.00;;;;;;5048336;28;20650;-82
2023/06/27 02:07:04;;;;;;;7.97;2.90;;;17.20;30.00;;;;;;5064486;28;20503;-83
2023/06/27 02:09:31;;;;;;;13.77;3.30;;;17.20;32.00;;;;;;5062000;28;20152;-84
2023/06/27 02:11:57;;;;;;;13.00;3.57;;;17.10;34.40;;;;;;5062518;28;20178;-82
2023/06/27 02:14:22;;;;;;;5.90;3.03;;;17.10;35.70;;;;;;5060991;28;20686;-81
2023/06/27 02:16:48;;;;;;;6.97;2.77;;;17.10;36.10;;;;;;5060997;28;20175;-84
2023/06/27 02:19:14;;;;;;;9.07;2.97;;;17.10;38.50;;;;;;5042887;28;20205;-83
2023/06/27 02:21:40;;;;;;;9.57;2.90;;;17.00;38.40;;;;;;5041494;28;20177;-83
2023/06/27 02:24:06;;;;;;;10.97;3.00;;;16.90;40.00;;;;;;5042360;28;20180;-85
2023/06/27 02:26:31;;;;;;;11.63;3.10;;;16.90;43.40;;;;;;5044631;28;20176;-83
2023/06/27 02:28:57;;;;;;;9.07;3.17;;;17.00;39.90;;;;;;5062484;28;20223;-82
2023/06/27 02:31:23;;;;;;;8.63;2.93;;;17.10;37.70;;;;;;5044685;28;20172;-82
2023/06/27 02:33:49;;;;;;;8.03;3.23;;;17.00;41.00;;;;;;5043865;28;20639;-82
2023/06/27 02:36:15;;;;;;;10.23;3.13;;;17.10;40.00;;;;;;5042621;28;20274;-81
2023/06/27 02:38:40;;;;;;;11.47;3.37;;;17.00;42.80;;;;;;5043844;28;20765;-83
2023/06/27 02:41:06;;;;;;;8.50;2.77;;;17.00;43.20;;;;;;5040759;28;20181;-83
2023/06/27 02:43:32;;;;;;;7.87;3.17;;;17.10;41.40;;;;;;5059598;28;20169;-82
2023/06/27 02:45:57;;;;;;;9.37;3.23;;;16.90;43.80;;;;;;5060062;28;20176;-83
2023/06/27 02:48:23;;;;;;;12.20;3.17;;;16.80;44.90;;;;;;5058454;28;20188;-82
2023/06/27 02:50:49;;;;;;;11.97;3.30;;;16.80;46.80;;;;;;5040636;28;20642;-85
2023/06/27 02:53:15;;;;;;;10.53;3.57;;;16.70;50.60;;;;;;5057481;28;20197;-85
2023/06/27 02:55:41;;;;;;;8.03;2.90;;;16.70;52.00;;;;;;5056967;28;20443;-84
2023/06/27 02:58:06;;;;;;;11.40;3.17;;;16.70;52.80;;;;;;5051591;28;20191;-82
2023/06/27 03:00:32;;;;;;;8.90;3.07;;;16.60;53.50;;;;;;5062486;28;20213;-81
2023/06/27 03:02:59;;;;;;;7.30;3.00;;;16.60;55.50;;;;;;5059417;28;20173;-81
2023/06/27 03:05:25;;;;;;;9.57;2.80;;;16.50;57.30;;;;;;5061938;28;20165;-84
2023/06/27 03:07:51;;;;;;;9.67;3.10;;;16.60;55.70;;;;;;5064297;28;20184;-84
2023/06/27 03:10:20;;;;;;;16.80;3.43;;;16.50;57.30;;;;;;5044356;28;20180;-84
2023/06/27 03:12:49;;;;;;;9.77;3.27;;;16.50;60.40;;;;;;5058118;28;20165;-85
2023/06/27 03:15:14;;;;;;;11.13;3.10;;;16.50;59.80;;;;;;5057329;28;20177;-85
2023/06/27 03:17:42;;;;;;;10.03;3.30;;;16.50;60.00;;;;;;5038794;28;20200;-86
2023/06/27 03:20:08;;;;;;;11.87;3.77;;;16.60;58.90;;;;;;5055663;28;20212;-84
2023/06/27 03:22:34;;;;;;;12.20;3.50;;;16.70;55.80;;;;;;5037068;28;20176;-86
2023/06/27 03:24:59;;;;;;;10.03;3.20;;;16.60;58.90;;;;;;5037980;28;20185;-85
2023/06/27 03:27:26;;;;;;;8.47;2.97;;;16.50;61.40;;;;;;5056750;28;20256;-85
2023/06/27 03:29:52;;;;;;;10.23;3.50;;;16.50;64.00;;;;;;5039367;28;20180;-85
2023/06/27 03:32:17;;;;;;;17.03;4.07;;;16.50;62.50;;;;;;5056361;28;20180;-84
2023/06/27 03:34:43;;;;;;;10.67;3.33;;;16.50;60.40;;;;;;5057656;28;20184;-85
2023/06/27 03:37:09;;;;;;;7.97;2.70;;;16.50;64.10;;;;;;5039440;28;20640;-84
2023/06/27 03:39:35;;;;;;;12.07;3.20;;;16.50;63.90;;;;;;5039949;28;20232;-86
2023/06/27 03:42:00;;;;;;;12.80;3.40;;;16.50;65.10;;;;;;5057561;28;20183;-84
2023/06/27 03:44:28;;;;;;;8.63;3.40;;;16.50;67.60;;;;;;5038024;28;20707;-84
2023/06/27 03:46:54;;;;;;;11.57;3.43;;;16.30;69.70;;;;;;5056063;28;20191;-84
2023/06/27 03:49:22;;;;;;;11.17;3.40;;;16.30;71.50;;;;;;5057255;28;20196;-85
2023/06/27 03:51:48;;;;;;;12.67;3.83;;;16.40;67.50;;;;;;5037768;28;20179;-84
2023/06/27 03:54:13;;;;;;;14.40;3.83;;;16.40;71.80;;;;;;5056042;28;20599;-84
2023/06/27 03:56:39;;;;;;;7.70;3.33;;;16.30;72.30;;;;;;5055842;28;20172;-85
2023/06/27 03:59:05;;;;;;;12.00;3.33;;;16.50;68.60;;;;;;5055521;28;20204;-85
2023/06/27 04:01:30;;;;;;;10.77;3.23;;;16.40;69.30;;;;;;5037872;28;20188;-84
2023/06/27 04:03:56;;;;;;;7.70;3.20;;;16.50;71.30;;;;;;5038403;28;20188;-87
2023/06/27 04:06:22;;;;;;;11.53;3.53;;;16.30;73.70;;;;;;5038896;28;20187;-84
2023/06/27 04:08:47;;;;;;;12.37;4.47;;;16.20;76.60;;;;;;5038960;28;20250;-83
2023/06/27 04:11:13;;;;;;;11.23;3.80;;;16.20;78.10;;;;;;5055827;28;20177;-84
2023/06/27 04:13:40;;;;;;;11.53;4.20;;;16.10;82.40;;;;;;5037498;28;20547;-87
2023/06/27 04:16:06;;;;;;;11.30;4.23;;;16.30;78.60;;;;;;5060326;28;20202;-82
2023/06/27 04:18:32;;;;;;;10.03;4.00;;;16.30;77.10;;;;;;5060283;28;20169;-85
2023/06/27 04:20:58;;;;;;;15.10;4.60;;;16.40;75.60;;;;;;5074782;28;20170;-86
2023/06/27 04:23:26;;;;;;;11.03;4.00;;;16.40;76.10;;;;;;5056659;28;20244;-84
2023/06/27 04:26:04;;;;;;;13.50;4.10;;;16.50;75.60;;;;;;5055915;28;20175;-85
2023/06/27 04:28:33;;;;;;;10.50;4.70;;;16.50;75.80;;;;;;5055693;28;20168;-85
2023/06/27 04:31:00;;;;;;;11.27;4.23;;;16.40;74.20;;;;;;5055312;28;20519;-84
2023/06/27 04:33:27;;;;;;;14.37;4.47;;;16.40;74.70;;;;;;5055143;28;20190;-85
2023/06/27 04:35:54;;;;;;;13.50;4.70;;;16.50;75.10;;;;;;5036981;28;20276;-85
2023/06/27 04:38:20;;;;;;;11.33;4.23;;;16.50;74.70;;;;;;5049108;28;20174;-85
2023/06/27 04:40:46;;;;;;;12.47;4.37;;;16.60;71.40;;;;;;5060356;28;20221;-81
2023/06/27 04:43:13;;;;;;;10.07;4.83;;;16.70;68.60;;;;;;5059395;28;20190;-83
2023/06/27 04:45:40;;;;;;;13.00;4.80;;;16.70;69.30;;;;;;5040760;28;20287;-83
2023/06/27 04:48:06;;;;;;;13.50;4.93;;;16.70;67.40;;;;;;5057839;28;20240;-86
2023/06/27 04:50:42;;;;;;;18.13;5.50;;;16.70;66.10;;;;;;5055653;28;20173;-86
2023/06/27 04:53:08;;;;;;;14.23;4.87;;;16.60;66.30;;;;;;5037686;28;20212;-85
2023/06/27 04:55:34;;;;;;;10.30;4.93;;;16.60;72.20;;;;;;5037365;28;20208;-83
2023/06/27 04:57:59;;;;;;;13.80;4.67;;;16.60;69.90;;;;;;5038589;28;20181;-84
2023/06/27 05:00:25;;;;;;;10.77;4.60;;;16.50;72.30;;;;;;5038914;28;20668;-85
2023/06/27 05:02:51;;;;;;;22.77;5.60;;;16.40;78.40;;;;;;5037401;28;20179;-85
2023/06/27 05:05:16;;;;;;;14.10;5.13;;;16.50;77.70;;;;;;5036962;28;20536;-86
2023/06/27 05:07:42;;;;;;;12.77;4.87;;;16.50;76.60;;;;;;5036778;28;20265;-85
2023/06/27 05:10:08;;;;;;;14.20;4.77;;;16.60;77.20;;;;;;5042115;28;20185;-85
2023/06/27 05:12:33;;;;;;;11.77;4.40;;;16.50;77.30;;;;;;5045257;28;20175;-84
2023/06/27 05:14:59;;;;;;;13.80;4.70;;;16.70;75.30;;;;;;5062516;28;20181;-86
2023/06/27 05:17:25;;;;;;;9.97;4.47;;;16.80;72.80;;;;;;5046359;28;20174;-83
2023/06/27 05:19:50;;;;;;;13.27;5.07;;;16.80;70.90;;;;;;5066004;28;20208;-83
2023/06/27 05:22:17;;;;;;;14.73;5.40;;;16.90;68.40;;;;;;5047552;28;20176;-84
2023/06/27 05:24:43;;;;;;;13.53;5.27;;;16.90;69.00;;;;;;5039306;28;20182;-86
2023/06/27 05:27:08;;;;;;;12.27;4.97;;;17.00;65.60;;;;;;5055443;28;20172;-85
2023/06/27 05:29:34;;;;;;;15.07;5.27;;;17.10;62.60;;;;;;5055625;28;20169;-85
2023/06/27 05:32:01;;;;;;;12.37;4.43;;;17.10;59.80;;;;;;5038207;28;20515;-86
2023/06/27 05:34:27;;;;;;;15.40;5.53;;;17.10;63.00;;;;;;5042050;28;20177;-86
2023/06/27 05:36:52;;;;;;;12.43;4.73;;;17.00;64.40;;;;;;5059338;28;20251;-86
2023/06/27 05:39:18;;;;;;;14.17;5.23;;;17.10;63.50;;;;;;5041563;28;20354;-86
2023/06/27 05:41:43;;;;;;;15.93;5.03;;;17.30;61.30;;;;;;5041563;28;20703;-83
2023/06/27 05:44:09;;;;;;;11.97;4.93;;;17.20;64.10;;;;;;5043327;28;20172;-86
2023/06/27 05:46:39;;;;;;;14.47;5.27;;;17.30;61.50;;;;;;5026197;28;20207;-87
2023/06/27 05:49:07;;;;;;;15.03;5.50;;;17.40;58.90;;;;;;5043836;28;20652;-89
2023/06/27 05:51:33;;;;;;;12.83;5.20;;;17.30;60.20;;;;;;5043716;28;20179;-88
2023/06/27 05:53:58;;;;;;;12.90;5.10;;;17.40;58.00;;;;;;5042703;28;20626;-86
2023/06/27 05:56:24;;;;;;;10.90;5.53;;;17.50;55.00;;;;;;5061073;28;20177;-88
2023/06/27 05:58:50;;;;;;;13.13;4.70;;;17.60;52.50;;;;;;5043353;28;20204;-88
2023/06/27 06:01:15;;;;;;;14.53;5.60;;;17.70;55.20;;;;;;5045552;28;20178;-88
2023/06/27 06:03:43;;;;;;;12.17;4.53;;;17.70;55.90;;;;;;5044694;28;20193;-89
2023/06/27 06:06:11;;;;;;;10.90;4.97;;;17.80;55.10;;;;;;5029982;28;20203;-87
2023/06/27 06:08:39;;;;;;;16.63;4.83;;;17.80;55.30;;;;;;5046882;28;20219;-88
2023/06/27 06:11:04;;;;;;;10.40;4.83;;;17.90;52.40;;;;;;5047284;28;20181;-88
2023/06/27 06:13:30;;;;;;;16.43;5.23;;;18.10;47.20;;;;;;5046379;28;20701;-86
2023/06/27 06:15:56;;;;;;;13.97;4.60;;;18.20;41.70;;;;;;5049894;28;20195;-83
2023/06/27 06:18:22;;;;;;;16.30;5.20;;;18.20;42.80;;;;;;5075478;28;20185;-83
2023/06/27 06:20:48;;;;;;;13.37;5.53;;;18.20;46.60;;;;;;5057895;28;20182;-90
2023/06/27 06:23:15;;;;;;;14.57;5.30;;;18.30;43.60;;;;;;5058489;28;20158;-84
2023/06/27 06:25:40;;;;;;;14.20;5.23;;;18.30;42.60;;;;;;5065376;28;20173;-86
2023/06/27 06:28:07;;;;;;;10.27;4.50;;;18.80;39.40;;;;;;5046623;28;20324;-84
2023/06/27 06:30:33;;;;;;;15.80;4.57;;;19.10;30.00;;;;;;5045606;28;20179;-83
2023/06/27 06:32:58;;;;;;;11.87;4.70;;;19.30;17.70;;;;;;5079323;28;20182;-83
2023/06/27 06:35:24;;;;;;;13.77;4.87;;;19.30;12.90;;;;;;5078020;28;20175;-84
2023/06/27 06:37:50;;;;;;;9.37;4.03;;;19.30;18.50;;;;;;5075291;28;20709;-84
2023/06/27 06:40:15;;;;;;;14.07;4.43;;;19.50;16.70;;;;;;5087993;28;20211;-83
2023/06/27 06:42:41;;;;;;;11.97;4.17;;;19.70;13.10;;;;;;5089396;28;20665;-82
2023/06/27 06:45:08;;;;;;;15.20;4.50;;;19.90;2.40;;;;;;5060312;28;20198;-84
2023/06/27 06:47:35;;;;;;;11.97;4.83;;;19.90;1.00;;;;;;5059986;28;20180;-83
2023/06/27 06:50:02;;;;;;;13.00;4.37;;;19.90;1.00;;;;;;5065033;28;20247;-83
2023/06/27 06:52:34;;;;;;;12.43;4.43;;;19.80;1.00;;;;;;5063556;28;20159;-83
2023/06/27 06:55:45;;;;;;;18.93;4.30;;;19.60;7.60;;;;;;5043805;28;20197;-82
2023/06/27 06:58:12;;;;;;;14.50;4.33;;;19.70;10.90;;;;;;5043201;28;20171;-85
2023/06/27 07:00:38;;;;;;;11.97;4.00;;;19.90;8.40;;;;;;5038969;28;20256;-83
2023/06/27 07:03:04;;;;;;;15.13;4.00;;;20.10;1.00;;;;;;5062086;28;20692;-82
2023/06/27 07:05:30;;;;;;;15.87;4.50;;;20.10;1.00;;;;;;5047342;28;20275;-84
2023/06/27 07:07:56;;;;;;;14.57;4.47;;;20.30;1.00;;;;;;5046389;28;20275;-84
2023/06/27 07:10:22;;;;;;;11.93;4.03;;;20.20;1.00;;;;;;5047628;28;20176;-84
2023/06/27 07:12:48;;;;;;;13.33;4.10;;;20.40;1.00;;;;;;5047442;28;20275;-86
2023/06/27 07:15:15;;;;;;;10.33;3.70;;;20.50;1.00;;;;;;5065863;28;20169;-84
2023/06/27 07:17:41;;;;;;;12.63;4.40;;;20.70;1.00;;;;;;5066843;28;20227;-84
2023/06/27 07:20:09;;;;;;;11.37;3.73;;;21.00;1.00;;;;;;5070381;28;20563;-83
2023/06/27 07:22:35;;;;;;;13.33;4.50;;;21.20;1.00;;;;;;5070789;28;20168;-83
2023/06/27 07:25:01;;;;;;;12.10;4.30;;;20.80;1.00;;;;;;5033835;28;20192;-83
2023/06/27 07:27:27;;;;;;;10.83;4.20;;;20.60;1.00;;;;;;5067336;28;20173;-84
2023/06/27 07:29:53;;;;;;;15.60;11.97;;;20.40;1.00;;;;;;5049058;28;20271;-83
2023/06/27 07:32:19;;;;;;;12.33;5.20;;;20.30;1.00;;;;;;5067768;28;20166;-83
2023/06/27 07:34:45;;;;;;;11.07;3.50;;;20.30;1.00;;;;;;5049479;28;20669;-84
2023/06/27 07:37:11;;;;;;;9.37;4.17;;;20.30;1.00;;;;;;5045432;28;20182;-83
2023/06/27 07:39:37;;;;;;;12.80;4.03;;;20.30;1.00;;;;;;5053310;28;20244;-84
2023/06/27 07:42:03;;;;;;;16.03;4.70;;;20.40;1.00;;;;;;5054307;28;20173;-81
2023/06/27 07:44:29;;;;;;;11.80;4.37;;;20.50;1.00;;;;;;5065532;28;20674;-87
2023/06/27 07:46:55;;;;;;;11.33;4.30;;;20.70;1.00;;;;;;5040344;28;20173;-86
2023/06/27 07:49:21;;;;;;;10.43;4.17;;;20.80;1.00;;;;;;5041604;28;20259;-85
2023/06/27 07:51:51;;;;;;;10.70;3.80;;;20.80;1.00;;;;;;5044827;28;20187;-85
2023/06/27 07:54:17;;;;;;;12.57;3.90;;;20.80;1.00;;;;;;5044141;28;20199;-87
2023/06/27 07:56:43;;;;;;;14.50;4.00;;;20.90;1.00;;;;;;5071799;28;20157;-85
2023/06/27 07:59:11;;;;;;;12.23;3.77;;;21.10;1.00;;;;;;5060234;28;20221;-84
2023/06/27 08:01:36;;;;;;;11.63;4.27;;;21.20;1.00;;;;;;5059857;28;20163;-87
2023/06/27 08:04:02;;;;;;;12.73;3.60;;;21.20;1.00;;;;;;5054254;28;20518;-86
2023/06/27 08:06:29;;;;;;;8.57;3.50;;;21.40;1.00;;;;;;5057108;28;20189;-84
2023/06/27 08:08:54;;;;;;;11.43;4.10;;;21.30;1.00;;;;;;5042660;28;20235;-87
2023/06/27 08:11:23;;;;;;;15.40;4.43;;;21.30;1.00;;;;;;5038793;28;20625;-88
2023/06/27 08:13:49;;;;;;;13.43;4.07;;;21.10;1.00;;;;;;5058191;28;20174;-86
2023/06/27 08:16:15;;;;;;;11.93;3.73;;;21.30;1.00;;;;;;5042449;28;20237;-84
2023/06/27 08:18:57;;;;;;;11.33;3.67;;;21.20;1.00;;;;;;5117509;27;21078;-81
2023/06/27 08:21:22;;;;;;;10.50;4.10;;;21.30;1.00;;;;;;5124285;28;20173;-85
2023/06/27 08:23:51;;;;;;;11.23;3.70;;;21.30;1.00;;;;;;5105722;28;20534;-87
2023/06/27 08:26:18;;;;;;;9.57;4.10;;;21.50;1.00;;;;;;5096989;28;20176;-85
2023/06/27 08:28:44;;;;;;;13.10;4.23;;;21.50;1.00;;;;;;5117603;28;20174;-84
2023/06/27 08:31:12;;;;;;;13.20;3.97;;;21.50;1.00;;;;;;5110408;28;20173;-83
2023/06/27 08:33:39;;;;;;;10.93;3.43;;;21.50;1.00;;;;;;5115921;28;20223;-82
2023/06/27 08:36:06;;;;;;;12.83;3.90;;;21.70;1.00;;;;;;5133377;28;20162;-83
2023/06/27 08:38:32;;;;;;;13.27;3.40;;;21.90;1.00;;;;;;5101234;28;20198;-85
2023/06/27 08:41:01;;;;;;;9.03;3.20;;;21.70;1.00;;;;;;5116896;28;20172;-87
2023/06/27 08:43:27;;;;;;;8.63;3.17;;;21.50;1.00;;;;;;5117698;28;20159;-85
2023/06/27 08:45:54;;;;;;;10.83;3.27;;;21.50;1.00;;;;;;5117543;28;20170;-85
2023/06/27 08:48:21;;;;;;;8.50;3.23;;;21.70;1.00;;;;;;5135187;28;20176;-84
2023/06/27 08:50:51;;;;;;;9.77;3.20;;;21.80;1.00;;;;;;5117384;28;20191;-84
2023/06/27 08:53:21;;;;;;;7.37;2.87;;;21.90;1.00;;;;;;5116903;28;20275;-86
2023/06/27 08:56:03;;;;;;;10.77;2.70;;;22.00;1.00;;;;;;5133369;28;20166;-84
2023/06/27 08:58:51;;;;;;;10.33;3.17;;;22.10;1.00;;;;;;5123231;28;20220;-85
2023/06/27 09:01:17;;;;;;;10.20;2.80;;;22.30;1.00;;;;;;5132548;28;20165;-85
2023/06/27 09:03:42;;;;;;;8.40;2.53;;;22.50;1.00;;;;;;5132817;28;20150;-85
2023/06/27 09:06:08;;;;;;;10.37;3.07;;;22.60;1.00;;;;;;5134137;28;20219;-84
2023/06/27 09:08:35;;;;;;;9.00;2.80;;;22.60;1.00;;;;;;5132598;28;20185;-84
2023/06/27 09:11:03;;;;;;;8.40;2.80;;;22.70;1.00;;;;;;5133312;28;20183;-86
2023/06/27 09:13:30;;;;;;;15.10;3.47;;;22.90;1.00;;;;;;5134381;28;20179;-83
2023/06/27 09:15:56;;;;;;;5.97;2.53;;;22.90;1.00;;;;;;5130989;28;20170;-87
2023/06/27 09:18:21;;;;;;;7.23;2.50;;;23.10;1.00;;;;;;5130672;28;20582;-85
2023/06/27 09:20:48;;;;;;;6.07;2.43;;;23.30;1.00;;;;;;5125520;28;20163;-85
2023/06/27 09:23:15;;;;;;;10.13;2.30;;;23.30;99.90;;;;;;5130997;28;20579;-83
2023/06/27 09:25:42;;;;;;;5.93;2.30;;;22.90;99.90;;;;;;5131301;28;20163;-87
2023/06/27 09:28:18;;;;;;;6.67;2.40;;;22.90;99.90;;;;;;5122515;28;20312;-85
2023/06/27 09:30:55;;;;;;;7.63;2.67;;;23.10;99.90;;;;;;5119036;28;20164;-88
2023/06/27 09:33:25;;;;;;;5.77;1.90;;;23.10;99.90;;;;;;5119146;28;20223;-86
2023/06/27 09:35:50;;;;;;;4.80;2.00;;;22.80;99.90;;;;;;5118477;28;20163;-87
2023/06/27 09:38:19;;;;;;;4.63;1.60;;;22.80;99.90;;;;;;5107294;28;20260;-86
2023/06/27 09:41:05;;;;;;;8.20;2.00;;;22.70;1.00;;;;;;5104751;28;20154;-87
2023/06/27 09:43:33;;;;;;;6.37;2.20;;;22.80;1.00;;;;;;5088350;28;20189;-86
2023/06/27 09:46:00;;;;;;;5.97;2.53;;;22.90;19.40;;;;;;5102785;28;20250;-87
2023/06/27 09:48:29;;;;;;;6.33;2.50;;;23.00;1.00;;;;;;5104665;28;20175;-87
2023/06/27 09:51:23;;;;;;;9.13;3.30;;;22.70;29.00;;;;;;5104284;28;20241;-84
2023/06/27 09:54:05;;;;;;;6.30;1.87;;;22.90;99.90;;;;;;5103400;28;20219;-86
2023/06/27 09:56:35;;;;;;;6.50;1.80;;;22.50;1.00;;;;;;5101729;28;20175;-86
2023/06/27 09:59:11;;;;;;;6.57;2.40;;;22.50;1.00;;;;;;5103816;28;20692;-83
2023/06/27 10:01:40;;;;;;;10.13;2.40;;;22.60;99.90;;;;;;5100280;28;20164;-86
2023/06/27 10:04:26;;;;;;;5.00;1.90;;;22.70;99.90;;;;;;5094561;28;20203;-88
2023/06/27 10:06:56;;;;;;;6.27;1.97;;;23.00;99.90;;;;;;5091420;28;20187;-89
2023/06/27 10:09:25;;;;;;;7.30;1.93;;;23.30;99.90;;;;;;5106887;28;20170;-89
2023/06/27 10:12:07;;;;;;;4.20;1.70;;;23.40;1.00;;;;;;5108258;28;20189;-86
2023/06/27 10:14:36;;;;;;;3.67;1.60;;;23.30;99.90;;;;;;5113740;28;20209;-87
2023/06/27 10:18:05;;;;;;;5.70;1.60;;;23.10;99.90;;;;;;5115305;28;20676;-84
2023/06/27 10:20:58;;;;;;;5.10;1.60;;;23.00;99.90;;;;;;5125316;28;20196;-84
2023/06/27 10:23:24;;;;;;;5.00;1.83;;;22.90;99.90;;;;;;5117913;28;20184;-87
2023/06/27 10:25:53;;;;;;;4.17;1.67;;;22.80;1.00;;;;;;5114102;28;20175;-85
2023/06/27 10:28:20;;;;;;;5.77;1.70;;;23.00;1.00;;;;;;5117668;28;20274;-82
2023/06/27 10:31:30;;;;;;;3.73;1.80;;;23.00;1.00;;;;;;5115873;28;20179;-82
2023/06/27 10:34:00;;;;;;;5.83;2.03;;;22.90;58.10;;;;;;5112717;28;20198;-85
2023/06/27 10:36:55;;;;;;;5.00;1.70;;;22.80;95.80;;;;;;5101021;28;20174;-88
2023/06/27 10:39:40;;;;;;;3.80;1.60;;;22.60;99.90;;;;;;5088874;28;20186;-86
2023/06/27 10:42:31;;;;;;;5.00;1.53;;;22.30;99.90;;;;;;5099847;28;20273;-89
2023/06/27 10:48:27;;;;;;;4.03;1.77;;;22.50;1.00;;;;;;5094172;28;20174;-89
2023/06/27 10:51:16;;;;;;;4.50;1.67;;;22.60;1.00;;;;;;5105922;28;20156;-87
2023/06/27 10:53:46;;;;;;;4.67;1.90;;;22.70;99.90;;;;;;5101153;28;20219;-88
2023/06/27 10:56:50;;;;;;;6.17;1.90;;;22.70;99.90;;;;;;5100580;28;20245;-91
2023/06/27 10:59:29;;;;;;;4.07;1.33;;;22.60;99.90;;;;;;5113993;28;20188;-83
2023/06/27 11:02:07;;;;;;;5.77;1.70;;;22.40;99.90;;;;;;5115666;28;20215;-83
2023/06/27 11:04:44;;;;;;;4.23;1.60;;;22.50;1.00;;;;;;5095239;28;20182;-86
2023/06/27 11:07:19;;;;;;;6.00;1.30;;;22.50;1.00;;;;;;5114316;28;20187;-84
2023/06/27 11:09:57;;;;;;;4.97;1.47;;;22.60;1.00;;;;;;5082389;28;20166;-87
2023/06/27 11:12:23;;;;;;;6.73;1.90;;;22.90;1.00;;;;;;5101527;28;20637;-86
2023/06/27 11:14:53;;;;;;;6.60;1.53;;;23.00;99.90;;;;;;5096600;28;20172;-82
2023/06/27 11:17:29;;;;;;;4.20;1.60;;;22.80;99.90;;;;;;5108232;28;20752;-84
2023/06/27 11:19:57;;;;;;;6.17;1.70;;;22.70;1.00;;;;;;5105773;28;20192;-82
2023/06/27 11:22:23;;;;;;;4.57;1.90;;;22.80;1.00;;;;;;5112551;28;20167;-83
2023/06/27 11:24:49;;;;;;;4.93;1.60;;;22.90;1.00;;;;;;5117657;28;20226;-83
2023/06/27 11:27:29;;;;;;;7.03;1.90;;;22.60;1.00;;;;;;5112607;28;20163;-84
2023/06/27 11:29:58;;;;;;;3.80;1.67;;;22.60;1.00;;;;;;5108619;28;20174;-83
2023/06/27 11:32:43;;;;;;;4.07;1.60;;;22.70;1.00;;;;;;5098951;28;20166;-83
2023/06/27 11:35:38;;;;;;;6.20;1.93;;;23.00;1.00;;;;;;5097678;28;20285;-88
2023/06/27 11:38:08;;;;;;;4.13;1.77;;;22.80;1.00;;;;;;5100200;28;20226;-88
2023/06/27 11:40:34;;;;;;;5.90;1.97;;;22.60;1.00;;;;;;5099187;28;20174;-86
2023/06/27 11:43:02;;;;;;;7.83;2.50;;;22.70;1.00;;;;;;5098277;28;20825;-88
2023/06/27 11:45:36;;;;;;;6.40;1.77;;;22.80;1.00;;;;;;5096056;28;20174;-88
2023/06/27 11:48:02;;;;;;;6.70;2.30;;;22.80;1.00;;;;;;5096422;28;20178;-85
2023/06/27 11:50:31;;;;;;;4.43;1.87;;;22.60;1.00;;;;;;5096974;28;20248;-89
2023/06/27 11:52:57;;;;;;;8.57;1.93;;;22.80;1.00;;;;;;5098981;28;20169;-86
2023/06/27 11:55:24;;;;;;;4.27;1.77;;;22.80;99.90;;;;;;5097445;28;20178;-87
2023/06/27 11:57:59;;;;;;;7.87;2.00;;;22.90;99.90;;;;;;5096037;28;20240;-82
2023/06/27 12:00:28;;;;;;;4.30;1.70;;;22.80;99.90;;;;;;5096461;28;20154;-88
2023/06/27 12:03:00;;;;;;;7.40;2.00;;;22.60;99.90;;;;;;5096238;28;20196;-81
2023/06/27 12:05:29;;;;;;;7.17;1.80;;;22.40;1.00;;;;;;5097080;28;20163;-89
2023/06/27 12:08:04;;;;;;;6.93;2.03;;;22.40;99.90;;;;;;5097187;28;20170;-86
2023/06/27 12:10:33;;;;;;;4.10;1.73;;;22.50;99.90;;;;;;5097309;28;20213;-86
2023/06/27 12:13:03;;;;;;;4.33;1.50;;;22.50;99.90;;;;;;5095822;28;20169;-83
2023/06/27 12:15:44;;;;;;;4.50;1.70;;;22.70;99.90;;;;;;5096696;28;20166;-89
2023/06/27 12:18:23;;;;;;;5.03;1.60;;;22.80;99.90;;;;;;5098315;28;20198;-87
2023/06/27 12:20:52;;;;;;;4.87;1.83;;;22.70;99.90;;;;;;5099535;28;20263;-83
2023/06/27 12:23:18;;;;;;;7.73;2.10;;;22.60;99.90;;;;;;5096535;28;20169;-83
2023/06/27 12:25:50;;;;;;;4.27;1.87;;;22.70;1.00;;;;;;5097605;28;20166;-81
2023/06/27 12:28:15;;;;;;;6.90;2.00;;;22.70;1.00;;;;;;5095123;28;20636;-82
2023/06/27 12:30:43;;;;;;;5.00;2.57;;;22.70;1.00;;;;;;5097025;28;20158;-84
2023/06/27 12:33:09;;;;;;;5.83;1.83;;;23.00;1.00;;;;;;5099118;28;20228;-84
2023/06/27 12:35:36;;;;;;;7.73;2.33;;;23.30;99.90;;;;;;5098636;28;20175;-84
2023/06/27 12:38:03;;;;;;;4.23;2.00;;;23.10;99.90;;;;;;5096115;28;20195;-88
2023/06/27 12:40:37;;;;;;;4.40;1.80;;;23.20;99.90;;;;;;5096941;28;20240;-84
2023/06/27 12:43:05;;;;;;;7.63;2.20;;;23.50;99.90;;;;;;5095997;28;20600;-84
2023/06/27 12:45:33;;;;;;;7.77;2.00;;;23.70;99.90;;;;;;5096228;28;20155;-83
2023/06/27 12:48:05;;;;;;;6.27;1.90;;;23.50;99.90;;;;;;5096285;28;20187;-86
2023/06/27 12:50:38;;;;;;;6.17;2.03;;;23.80;99.90;;;;;;5095889;28;20176;-88
2023/06/27 12:53:03;;;;;;;5.43;1.93;;;24.00;58.40;;;;;;5095591;28;20167;-85
2023/06/27 12:55:29;;;;;;;6.60;2.00;;;24.20;1.00;;;;;;5094576;28;20179;-90
2023/06/27 12:57:59;;;;;;;5.77;2.10;;;24.40;99.90;;;;;;5095516;28;20275;-88